Time;durP1;ratioP1;P1;durP2;ratioP2;P2;SDS_P1;SDS_P2;PMS_P1;PMS_P2;Temp;Humidity;BMP_temperature;BMP_pressure;BME280_temperature;BME280_humidity;BME280_pressure;Samples;Min_cycle;Max_cycle;Signal;HPM_P1;HPM_P2
2023/07/07 00:02:24;;;;;;;15.30;7.10;;;28.70;99.90;;;;;;1893778;75;21119;-80
2023/07/07 00:04:57;;;;;;;11.60;7.67;;;28.70;99.90;;;;;;1905434;75;21123;-81
2023/07/07 00:07:31;;;;;;;14.18;8.45;;;28.80;99.90;;;;;;1902761;75;21603;-82
2023/07/07 00:10:04;;;;;;;10.80;7.78;;;28.80;99.90;;;;;;1906856;74;21734;-81
2023/07/07 00:12:38;;;;;;;15.30;7.92;;;28.80;99.90;;;;;;1908347;74;21118;-81
2023/07/07 00:15:14;;;;;;;20.20;8.18;;;28.80;99.90;;;;;;1907920;74;21126;-80
2023/07/07 00:17:50;;;;;;;11.55;7.83;;;28.80;99.90;;;;;;1900657;74;21560;-78
2023/07/07 00:20:28;;;;;;;15.88;7.83;;;28.90;99.90;;;;;;1926253;73;21083;-82
2023/07/07 00:23:07;;;;;;;13.78;9.38;;;28.90;99.90;;;;;;1895031;74;21136;-83
2023/07/07 00:25:40;;;;;;;19.95;8.65;;;28.80;99.90;;;;;;1899638;75;21138;-80
2023/07/07 00:28:16;;;;;;;14.05;8.58;;;28.80;99.90;;;;;;1932128;74;21557;-79
2023/07/07 00:30:57;;;;;;;20.30;8.50;;;28.80;99.90;;;;;;1939833;73;21052;-79
2023/07/07 00:33:38;;;;;;;16.12;8.20;;;28.80;99.90;;;;;;1944193;73;21096;-78
2023/07/07 00:36:10;;;;;;;18.42;9.65;;;28.80;99.90;;;;;;1932254;73;21478;-77
2023/07/07 00:38:47;;;;;;;16.27;9.00;;;28.80;99.90;;;;;;1933660;73;21173;-79
2023/07/07 00:41:28;;;;;;;13.45;8.88;;;28.90;99.90;;;;;;1936244;74;21129;-77
2023/07/07 00:44:14;;;;;;;13.20;8.80;;;28.90;99.90;;;;;;1945380;73;21088;-78
2023/07/07 00:46:58;;;;;;;12.18;8.83;;;28.90;99.90;;;;;;1937030;73;21103;-77
2023/07/07 00:49:51;;;;;;;16.70;9.93;;;29.00;99.90;;;;;;1926753;73;21626;-81
2023/07/07 00:52:26;;;;;;;13.53;8.83;;;29.00;99.90;;;;;;1923793;74;21127;-79
2023/07/07 00:55:09;;;;;;;15.43;9.48;;;29.10;99.90;;;;;;1930206;73;21133;-79
2023/07/07 00:57:46;;;;;;;12.40;8.35;;;29.10;99.90;;;;;;1954703;73;21204;-80
2023/07/07 01:00:32;;;;;;;12.68;7.90;;;29.10;99.90;;;;;;1930529;74;21066;-82
2023/07/07 01:03:19;;;;;;;13.62;9.03;;;29.20;99.90;;;;;;1933333;73;21106;-80
2023/07/07 01:05:57;;;;;;;19.70;9.53;;;29.20;99.90;;;;;;1920131;73;21185;-82
2023/07/07 01:08:35;;;;;;;26.90;10.15;;;29.30;99.90;;;;;;1943163;73;21196;-82
2023/07/07 01:11:08;;;;;;;17.32;9.05;;;29.40;99.90;;;;;;1932550;74;21578;-82
2023/07/07 01:13:42;;;;;;;20.23;9.13;;;29.40;99.90;;;;;;1938362;73;21100;-81
2023/07/07 01:16:37;;;;;;;18.48;8.20;;;29.50;99.90;;;;;;1893647;74;21143;-82
2023/07/07 01:19:15;;;;;;;30.17;8.70;;;29.70;99.90;;;;;;1898656;75;21139;-78
2023/07/07 01:22:29;;;;;;;21.15;8.30;;;29.80;99.90;;;;;;1912748;74;21163;-80
2023/07/07 01:25:17;;;;;;;19.77;7.67;;;29.90;99.90;;;;;;1898310;74;21161;-80
2023/07/07 01:27:55;;;;;;;32.30;8.55;;;30.00;99.90;;;;;;1903708;74;21148;-82
2023/07/07 01:30:37;;;;;;;13.70;7.95;;;30.10;99.90;;;;;;1897382;74;21120;-80
2023/07/07 01:33:16;;;;;;;17.35;7.62;;;30.20;99.90;;;;;;1854493;76;21210;-81
2023/07/07 01:35:53;;;;;;;29.92;9.48;;;30.30;99.90;;;;;;1910686;74;21223;-80
2023/07/07 01:38:34;;;;;;;12.73;6.97;;;30.40;99.90;;;;;;1876315;74;21083;-81
2023/07/07 01:41:42;;;;;;;8.10;5.67;;;30.40;99.90;;;;;;1888533;74;21637;-81
2023/07/07 01:44:46;;;;;;;9.23;5.22;;;30.50;99.90;;;;;;1895109;74;21103;-80
2023/07/07 01:47:21;;;;;;;15.85;6.90;;;30.50;99.90;;;;;;1869227;75;21121;-77
2023/07/07 01:50:14;;;;;;;24.18;6.90;;;30.60;99.90;;;;;;1887695;74;21735;-79
2023/07/07 01:53:04;;;;;;;23.73;6.95;;;30.80;99.90;;;;;;1919538;73;21167;-77
2023/07/07 01:55:43;;;;;;;8.73;5.47;;;30.90;99.90;;;;;;1888082;74;21134;-79
2023/07/07 01:58:35;;;;;;;11.28;5.60;;;31.00;99.90;;;;;;1880415;75;21104;-77
2023/07/07 02:01:09;;;;;;;8.90;5.42;;;31.10;99.90;;;;;;1913264;73;21525;-80
2023/07/07 02:03:46;;;;;;;9.78;5.50;;;31.20;99.90;;;;;;1881053;74;21224;-80
2023/07/07 02:06:28;;;;;;;9.95;5.37;;;31.20;99.90;;;;;;1879834;75;21147;-78
2023/07/07 02:09:12;;;;;;;6.08;4.10;;;31.30;99.90;;;;;;1920655;73;21105;-78
2023/07/07 02:11:58;;;;;;;7.58;4.20;;;31.30;99.90;;;;;;1894396;74;21114;-78
2023/07/07 02:14:43;;;;;;;;;;;31.40;99.90;;;;;;1879396;76;21228;-79
2023/07/07 02:17:18;;;;;;;9.18;4.42;;;31.40;99.90;;;;;;1872870;76;20204;-81
2023/07/07 02:19:55;;;;;;;7.33;4.70;;;31.50;99.90;;;;;;1914474;74;21112;-81
2023/07/07 02:22:33;;;;;;;7.58;4.03;;;31.60;99.90;;;;;;1913993;73;21053;-79
2023/07/07 02:25:08;;;;;;;10.93;5.33;;;31.80;99.90;;;;;;1921701;74;21101;-81
2023/07/07 02:27:39;;;;;;;9.35;4.40;;;31.90;99.70;;;;;;1915840;74;21183;-76
2023/07/07 02:30:30;;;;;;;12.30;3.77;;;32.00;99.70;;;;;;1927390;74;21141;-82
2023/07/07 02:33:02;;;;;;;6.97;3.72;;;32.10;99.30;;;;;;1912461;75;21102;-78
2023/07/07 02:35:40;;;;;;;7.53;4.15;;;32.10;98.70;;;;;;1914899;75;21069;-83
2023/07/07 02:38:14;;;;;;;7.33;3.72;;;32.20;98.90;;;;;;1911120;75;21146;-81
2023/07/07 02:40:47;;;;;;;6.33;3.65;;;32.20;98.30;;;;;;1913220;75;21551;-81
2023/07/07 02:43:25;;;;;;;4.87;3.12;;;32.30;97.60;;;;;;1915758;75;21573;-81
2023/07/07 02:45:58;;;;;;;5.85;2.90;;;32.40;97.60;;;;;;1911317;75;21133;-83
2023/07/07 02:48:49;;;;;;;7.10;3.30;;;32.30;97.00;;;;;;1931177;73;21144;-83
2023/07/07 02:51:31;;;;;;;7.05;3.20;;;32.30;97.20;;;;;;1930684;74;21063;-78
2023/07/07 02:54:11;;;;;;;10.43;3.02;;;32.30;97.40;;;;;;1938234;74;21119;-81
2023/07/07 02:56:46;;;;;;;6.30;3.20;;;32.30;97.10;;;;;;1912341;75;21116;-83
2023/07/07 02:59:19;;;;;;;7.30;3.27;;;32.30;97.30;;;;;;1914767;75;21062;-79
2023/07/07 03:01:53;;;;;;;8.30;3.42;;;32.40;97.30;;;;;;1911689;75;21311;-80
2023/07/07 03:04:30;;;;;;;6.10;3.45;;;32.50;97.10;;;;;;1910570;75;21092;-80
2023/07/07 03:07:07;;;;;;;6.72;3.10;;;32.50;96.90;;;;;;1929016;74;21186;-80
2023/07/07 03:09:44;;;;;;;7.80;3.08;;;32.60;97.10;;;;;;1922467;74;21089;-82
2023/07/07 03:12:21;;;;;;;7.28;3.00;;;32.70;96.60;;;;;;1908068;75;21063;-81
2023/07/07 03:14:55;;;;;;;5.45;3.12;;;32.70;96.40;;;;;;1915255;74;21120;-78
2023/07/07 03:17:35;;;;;;;11.53;3.62;;;32.80;96.40;;;;;;1914277;73;21182;-80
2023/07/07 03:20:13;;;;;;;6.25;2.47;;;32.90;96.60;;;;;;1877865;75;21062;-77
2023/07/07 03:22:51;;;;;;;6.15;2.80;;;32.90;95.50;;;;;;1885333;75;21416;-78
2023/07/07 03:25:30;;;;;;;5.40;2.60;;;33.00;95.70;;;;;;1886832;75;21126;-77
2023/07/07 03:28:19;;;;;;;5.55;2.55;;;33.00;95.00;;;;;;1912555;75;21491;-79
2023/07/07 03:30:52;;;;;;;7.87;2.37;;;33.00;94.90;;;;;;1880038;74;21673;-77
2023/07/07 03:33:25;;;;;;;3.67;2.30;;;33.10;95.10;;;;;;1905311;75;21095;-77
2023/07/07 03:35:58;;;;;;;5.03;2.45;;;33.10;94.20;;;;;;1898093;75;21194;-81
2023/07/07 03:38:32;;;;;;;5.17;2.17;;;33.10;94.70;;;;;;1860284;77;21139;-84
2023/07/07 03:41:24;;;;;;;4.17;2.70;;;33.20;94.60;;;;;;1886854;74;21183;-81
2023/07/07 03:43:58;;;;;;;3.87;2.47;;;33.20;94.50;;;;;;1912618;74;21578;-78
2023/07/07 03:46:42;;;;;;;4.80;2.42;;;33.40;94.50;;;;;;1914577;74;21143;-81
2023/07/07 03:49:20;;;;;;;5.17;2.25;;;33.50;93.80;;;;;;1909017;75;21170;-82
2023/07/07 03:51:54;;;;;;;3.37;2.22;;;33.50;93.80;;;;;;1872487;76;21708;-80
2023/07/07 03:54:33;;;;;;;5.65;2.52;;;33.50;93.30;;;;;;1874233;76;21656;-79
2023/07/07 03:57:10;;;;;;;6.00;2.45;;;33.60;94.00;;;;;;1878543;75;21125;-81
2023/07/07 03:59:46;;;;;;;4.87;2.00;;;33.60;93.50;;;;;;1871877;75;21134;-82
2023/07/07 04:02:35;;;;;;;5.75;1.90;;;33.60;92.60;;;;;;1876065;75;21154;-83
2023/07/07 04:05:11;;;;;;;5.47;2.02;;;33.70;92.80;;;;;;1885603;75;21179;-80
2023/07/07 04:07:48;;;;;;;4.00;1.92;;;33.70;92.70;;;;;;1889123;74;21236;-82
2023/07/07 04:10:26;;;;;;;5.37;2.67;;;33.70;92.70;;;;;;1900674;75;21111;-85
2023/07/07 04:13:01;;;;;;;5.15;2.20;;;33.70;92.60;;;;;;1881675;75;21073;-79
2023/07/07 04:15:35;;;;;;;4.90;2.42;;;33.70;93.30;;;;;;1883848;75;21131;-81
2023/07/07 04:18:17;;;;;;;5.55;2.00;;;33.80;93.30;;;;;;1866779;74;21127;-82
2023/07/07 04:20:51;;;;;;;4.78;1.95;;;33.90;92.80;;;;;;1874914;75;22385;-81
2023/07/07 04:23:28;;;;;;;3.80;1.90;;;33.90;92.40;;;;;;1913433;75;21079;-78
2023/07/07 04:26:06;;;;;;;4.17;2.40;;;33.90;92.00;;;;;;1899766;75;21212;-80
2023/07/07 04:28:40;;;;;;;4.67;2.37;;;33.80;92.30;;;;;;1910665;74;21405;-82
2023/07/07 04:31:14;;;;;;;7.03;2.10;;;33.70;92.80;;;;;;1911246;75;21205;-84
2023/07/07 04:33:51;;;;;;;2.67;1.80;;;33.70;92.10;;;;;;1912594;75;21140;-82
2023/07/07 04:36:25;;;;;;;6.15;1.90;;;33.80;91.80;;;;;;1877321;76;21107;-80
2023/07/07 04:39:01;;;;;;;5.15;2.05;;;33.80;92.00;;;;;;1891788;75;21145;-78
2023/07/07 04:41:38;;;;;;;4.53;2.00;;;34.00;91.90;;;;;;1911294;75;21566;-77
2023/07/07 04:44:12;;;;;;;6.08;1.90;;;34.00;91.40;;;;;;1910454;75;21080;-80
2023/07/07 04:46:51;;;;;;;4.10;1.82;;;34.00;91.30;;;;;;1913354;75;21124;-81
2023/07/07 04:49:46;;;;;;;3.65;1.98;;;34.00;91.10;;;;;;1903392;74;21198;-80
2023/07/07 04:52:28;;;;;;;4.28;1.52;;;34.00;90.90;;;;;;1910503;75;21149;-80
2023/07/07 04:55:02;;;;;;;14.33;3.00;;;34.00;90.10;;;;;;1905161;74;21683;-81
2023/07/07 04:57:43;;;;;;;3.67;2.05;;;34.00;90.80;;;;;;1908121;74;21131;-81
2023/07/07 05:00:17;;;;;;;6.72;2.40;;;34.00;90.70;;;;;;1891473;74;21142;-81
2023/07/07 05:03:01;;;;;;;3.60;1.95;;;34.00;90.70;;;;;;1891513;75;21639;-81
2023/07/07 05:05:40;;;;;;;5.90;2.15;;;34.00;90.80;;;;;;1884501;75;21190;-78
2023/07/07 05:08:14;;;;;;;4.53;2.08;;;34.00;91.30;;;;;;1906659;75;21590;-80
2023/07/07 05:10:51;;;;;;;6.05;2.30;;;34.20;90.50;;;;;;1910158;75;21183;-80
2023/07/07 05:13:28;;;;;;;27.25;5.37;;;34.30;91.00;;;;;;1912340;75;21107;-82
2023/07/07 05:16:09;;;;;;;7.87;3.20;;;34.30;90.90;;;;;;1902859;75;21206;-81
2023/07/07 05:18:46;;;;;;;5.05;2.22;;;34.40;92.50;;;;;;1921495;74;21588;-84
2023/07/07 05:21:21;;;;;;;5.55;2.55;;;34.50;90.20;;;;;;1932106;74;21075;-81
2023/07/07 05:23:58;;;;;;;4.72;2.00;;;34.60;90.10;;;;;;1907367;73;21117;-81
2023/07/07 05:26:33;;;;;;;8.33;2.35;;;34.60;90.00;;;;;;1926169;73;21037;-79
2023/07/07 05:29:08;;;;;;;6.28;2.33;;;34.50;90.20;;;;;;1928963;73;21166;-80
2023/07/07 05:31:44;;;;;;;6.70;2.10;;;34.40;90.30;;;;;;1891571;74;21643;-78
2023/07/07 05:34:33;;;;;;;5.33;1.85;;;34.30;90.60;;;;;;1934852;73;21148;-79
2023/07/07 05:37:10;;;;;;;13.90;2.47;;;34.40;90.60;;;;;;1922757;74;21071;-80
2023/07/07 05:39:42;;;;;;;5.28;1.77;;;34.50;90.50;;;;;;1928162;73;21127;-79
2023/07/07 05:42:15;;;;;;;3.62;2.40;;;34.50;89.10;;;;;;1944084;73;21159;-80
2023/07/07 05:44:52;;;;;;;4.78;2.08;;;34.70;90.40;;;;;;1922510;74;21173;-78
2023/07/07 05:47:25;;;;;;;4.90;1.82;;;34.80;88.30;;;;;;1935310;73;21102;-77
2023/07/07 05:50:04;;;;;;;2.83;1.50;;;34.90;88.60;;;;;;1887173;74;21075;-76
2023/07/07 05:52:40;;;;;;;2.37;1.32;;;35.00;88.70;;;;;;1938631;73;21053;-79
2023/07/07 05:55:36;;;;;;;6.17;1.77;;;35.10;87.10;;;;;;1857505;75;21123;-78
2023/07/07 05:58:07;;;;;;;4.05;1.72;;;35.10;86.70;;;;;;1933246;73;21588;-79
2023/07/07 06:00:51;;;;;;;3.65;1.80;;;35.00;85.50;;;;;;1929658;73;21612;-80
2023/07/07 06:03:34;;;;;;;5.53;1.80;;;34.80;86.60;;;;;;1931455;73;21177;-79
2023/07/07 06:06:07;;;;;;;6.78;2.22;;;34.70;87.90;;;;;;1931055;73;21174;-80
2023/07/07 06:08:41;;;;;;;8.53;2.43;;;34.60;87.60;;;;;;1887382;75;21193;-79
2023/07/07 06:11:14;;;;;;;3.27;1.55;;;34.70;88.50;;;;;;1907643;73;21669;-79
2023/07/07 06:13:49;;;;;;;6.47;1.83;;;34.80;87.40;;;;;;1901518;74;21252;-79
2023/07/07 06:16:24;;;;;;;5.30;1.70;;;34.90;87.20;;;;;;1932082;73;21550;-82
2023/07/07 06:19:14;;;;;;;9.55;1.82;;;34.90;86.50;;;;;;1889181;74;21153;-78
2023/07/07 06:22:08;;;;;;;3.80;2.00;;;35.00;86.80;;;;;;1938101;73;21220;-78
2023/07/07 06:25:03;;;;;;;16.57;2.98;;;35.10;87.10;;;;;;1936273;73;21510;-79
2023/07/07 06:27:44;;;;;;;2.58;1.45;;;35.10;85.80;;;;;;1931928;73;21218;-79
2023/07/07 06:30:36;;;;;;;3.87;1.80;;;35.20;85.50;;;;;;1898153;73;21143;-82
2023/07/07 06:33:27;;;;;;;4.28;1.77;;;35.10;86.40;;;;;;1889818;75;21183;-79
2023/07/07 06:35:59;;;;;;;3.58;1.62;;;35.20;85.60;;;;;;1927957;73;21636;-78
2023/07/07 06:38:46;;;;;;;4.62;1.45;;;35.20;86.20;;;;;;1902038;74;21573;-79
2023/07/07 06:41:33;;;;;;;5.10;1.50;;;35.20;85.30;;;;;;1931947;73;21430;-80
2023/07/07 06:44:12;;;;;;;5.67;1.72;;;35.20;85.30;;;;;;1932118;73;21088;-76
2023/07/07 06:47:04;;;;;;;3.55;1.70;;;35.20;84.50;;;;;;1933397;73;21079;-77
2023/07/07 06:49:46;;;;;;;16.85;2.85;;;35.30;84.50;;;;;;1898775;73;21091;-78
2023/07/07 06:52:35;;;;;;;15.32;3.60;;;35.30;85.30;;;;;;1938222;73;21296;-79
2023/07/07 06:55:24;;;;;;;3.00;1.62;;;35.40;84.20;;;;;;1930512;73;21084;-79
2023/07/07 06:58:05;;;;;;;6.17;1.40;;;35.50;84.80;;;;;;1934770;73;21199;-80
2023/07/07 07:00:38;;;;;;;5.17;2.02;;;35.30;83.40;;;;;;1938096;73;21127;-79
2023/07/07 07:03:22;;;;;;;4.97;1.87;;;35.30;83.40;;;;;;1899571;74;21183;-79
2023/07/07 07:05:59;;;;;;;4.00;1.80;;;35.30;84.20;;;;;;1895332;75;21673;-80
2023/07/07 07:08:54;;;;;;;4.58;1.60;;;35.20;84.70;;;;;;1898203;75;21594;-76
2023/07/07 07:11:34;;;;;;;4.75;1.40;;;35.30;84.90;;;;;;1927586;74;21502;-82
2023/07/07 07:14:11;;;;;;;5.17;1.70;;;35.30;84.40;;;;;;1927984;73;21134;-79
2023/07/07 07:17:05;;;;;;;4.03;1.25;;;35.30;83.30;;;;;;1932744;73;22097;-77
2023/07/07 07:22:44;;;;;;;4.25;1.57;;;35.20;83.70;;;;;;1946101;73;21109;-81
2023/07/07 07:25:34;;;;;;;3.42;1.40;;;35.20;83.10;;;;;;1935715;74;21053;-78
2023/07/07 07:28:28;;;;;;;4.47;1.60;;;35.10;84.40;;;;;;1921362;74;21829;-80
2023/07/07 07:31:15;;;;;;;4.63;1.60;;;35.00;84.90;;;;;;1921645;74;21062;-80
2023/07/07 07:33:55;;;;;;;5.22;1.77;;;34.80;85.30;;;;;;1915596;74;21082;-80
2023/07/07 07:36:39;;;;;;;3.02;1.40;;;34.70;85.10;;;;;;1908979;75;21062;-82
2023/07/07 07:39:25;;;;;;;6.85;1.90;;;34.70;85.40;;;;;;1879479;76;21630;-79
2023/07/07 07:42:27;;;;;;;2.95;1.37;;;34.50;85.90;;;;;;1877863;76;21107;-81
2023/07/07 07:45:04;;;;;;;3.30;1.55;;;34.40;86.50;;;;;;1867291;76;21178;-76
2023/07/07 07:47:56;;;;;;;4.30;1.75;;;34.40;87.20;;;;;;1935122;73;21060;-77
2023/07/07 07:50:43;;;;;;;3.17;1.82;;;34.40;87.30;;;;;;1909336;75;21082;-77
2023/07/07 07:53:48;;;;;;;3.77;1.65;;;34.30;87.60;;;;;;1862512;76;21209;-80
2023/07/07 07:56:50;;;;;;;3.33;1.75;;;34.30;86.20;;;;;;1857613;76;21079;-81
2023/07/07 07:59:51;;;;;;;3.25;1.75;;;34.30;86.90;;;;;;1916926;75;21145;-75
2023/07/07 08:02:50;;;;;;;3.52;1.95;;;34.40;87.70;;;;;;1907323;75;21084;-78
2023/07/07 08:05:30;;;;;;;3.25;1.67;;;34.50;88.20;;;;;;1900093;75;21111;-79
2023/07/07 08:08:19;;;;;;;10.45;2.25;;;34.40;87.20;;;;;;1882736;75;21229;-76
2023/07/07 08:11:07;;;;;;;4.45;2.05;;;34.40;87.70;;;;;;1915067;75;21128;-76
2023/07/07 08:14:10;;;;;;;5.75;2.15;;;34.40;87.80;;;;;;1944138;74;21046;-80
2023/07/07 08:17:18;;;;;;;6.65;2.12;;;34.30;88.10;;;;;;1909980;75;21145;-77
2023/07/07 08:19:56;;;;;;;6.53;1.90;;;34.20;88.30;;;;;;1924396;73;21165;-76
2023/07/07 08:22:39;;;;;;;5.17;1.80;;;34.20;88.10;;;;;;1937708;73;21104;-80
2023/07/07 08:25:48;;;;;;;3.25;1.47;;;34.30;86.70;;;;;;1895093;74;21126;-79
2023/07/07 08:28:41;;;;;;;7.95;2.35;;;34.40;87.40;;;;;;1935432;73;21492;-78
2023/07/07 08:31:20;;;;;;;3.67;1.77;;;34.50;87.20;;;;;;1948419;72;21092;-81
2023/07/07 08:34:00;;;;;;;11.75;4.37;;;34.50;85.60;;;;;;1958869;72;21118;-83
2023/07/07 08:36:42;;;;;;;3.27;1.65;;;34.60;85.50;;;;;;1917154;74;21170;-77
2023/07/07 08:39:21;;;;;;;7.90;3.35;;;34.60;85.20;;;;;;1893156;74;21751;-79
2023/07/07 08:42:06;;;;;;;4.58;2.22;;;34.70;85.10;;;;;;1884788;75;21123;-80
2023/07/07 08:44:56;;;;;;;6.00;1.97;;;34.70;86.40;;;;;;1885614;74;21178;-81
2023/07/07 08:48:03;;;;;;;4.55;1.40;;;34.70;86.80;;;;;;1895742;74;21517;-81
2023/07/07 08:50:59;;;;;;;4.30;1.60;;;34.70;86.20;;;;;;1928968;73;21160;-80
2023/07/07 08:54:05;;;;;;;4.12;1.62;;;34.80;86.60;;;;;;1900738;74;21170;-81
2023/07/07 08:56:56;;;;;;;12.63;2.75;;;34.70;85.50;;;;;;1937309;73;21644;-81
2023/07/07 08:59:58;;;;;;;2.83;1.82;;;34.80;85.00;;;;;;1940614;72;21139;-82
2023/07/07 09:02:56;;;;;;;6.40;1.80;;;34.70;85.60;;;;;;1924041;73;21247;-80
2023/07/07 09:05:46;;;;;;;3.00;1.67;;;34.80;84.90;;;;;;1921801;73;21201;-79
2023/07/07 09:08:44;;;;;;;7.78;2.10;;;34.80;84.70;;;;;;1939332;73;21083;-80
2023/07/07 09:11:51;;;;;;;5.22;1.92;;;34.70;84.70;;;;;;1958517;71;21155;-80
2023/07/07 09:14:28;;;;;;;3.27;1.87;;;34.70;84.10;;;;;;1922976;74;22248;-79
2023/07/07 09:17:24;;;;;;;3.98;2.37;;;34.70;84.70;;;;;;1897118;75;21124;-82
2023/07/07 09:20:15;;;;;;;7.08;2.40;;;34.60;84.50;;;;;;1901217;75;21130;-81
2023/07/07 09:23:20;;;;;;;4.00;1.70;;;34.60;84.50;;;;;;1898799;74;21677;-77
2023/07/07 09:26:24;;;;;;;5.33;2.27;;;34.60;84.40;;;;;;1914836;73;21753;-81
2023/07/07 09:29:28;;;;;;;3.67;1.77;;;34.60;85.50;;;;;;1932182;73;21035;-79
2023/07/07 09:32:14;;;;;;;5.90;2.05;;;34.60;85.80;;;;;;1932030;74;21052;-77
2023/07/07 09:35:01;;;;;;;4.17;2.60;;;34.60;85.70;;;;;;1934181;73;21162;-78
2023/07/07 09:37:52;;;;;;;6.33;3.27;;;34.60;85.20;;;;;;1931349;74;21159;-78
2023/07/07 09:40:41;;;;;;;6.97;3.77;;;34.60;85.40;;;;;;1884424;74;21170;-82
2023/07/07 09:43:28;;;;;;;6.30;2.72;;;34.60;86.50;;;;;;1882780;75;21071;-79
2023/07/07 09:46:21;;;;;;;5.08;2.70;;;34.60;86.60;;;;;;1926416;73;21127;-79
2023/07/07 09:49:19;;;;;;;7.12;2.35;;;34.50;86.70;;;;;;1934772;74;21167;-78
2023/07/07 09:52:31;;;;;;;8.10;2.55;;;34.50;86.60;;;;;;1927364;74;21134;-80
2023/07/07 09:55:11;;;;;;;6.35;2.62;;;34.50;86.90;;;;;;1896648;74;21264;-79
2023/07/07 09:58:01;;;;;;;5.58;3.22;;;34.50;86.90;;;;;;1945621;73;21325;-69
2023/07/07 10:00:45;;;;;;;4.35;2.45;;;34.40;87.00;;;;;;1969339;72;21164;-68
2023/07/07 10:03:41;;;;;;;7.83;3.20;;;34.40;87.00;;;;;;1973708;71;22306;-69
2023/07/07 10:06:27;;;;;;;12.25;3.92;;;34.40;87.40;;;;;;1965637;72;21158;-71
2023/07/07 10:09:07;;;;;;;7.03;2.92;;;34.30;86.80;;;;;;1929418;74;21054;-68
2023/07/07 10:11:49;;;;;;;5.83;2.35;;;34.30;87.50;;;;;;1950686;73;21118;-67
2023/07/07 10:14:32;;;;;;;4.92;2.40;;;34.30;87.20;;;;;;1969639;72;21111;-69
2023/07/07 10:17:25;;;;;;;5.25;2.05;;;34.20;87.30;;;;;;1927651;74;21033;-67
2023/07/07 10:20:01;;;;;;;6.62;2.30;;;34.20;87.10;;;;;;1908195;74;21101;-68
2023/07/07 10:22:50;;;;;;;5.70;2.45;;;34.20;87.20;;;;;;1905809;74;21091;-70
2023/07/07 10:25:30;;;;;;;9.38;3.10;;;34.10;87.50;;;;;;1909295;74;21173;-71
2023/07/07 10:28:04;;;;;;;5.12;2.77;;;34.10;87.60;;;;;;1931401;74;21173;-74
2023/07/07 10:30:53;;;;;;;8.40;2.30;;;34.10;88.20;;;;;;1933346;73;21647;-69
2023/07/07 10:33:24;;;;;;;5.00;2.35;;;34.00;87.90;;;;;;1933637;73;21095;-68
2023/07/07 10:35:57;;;;;;;3.98;2.08;;;34.00;87.60;;;;;;1891534;74;21056;-68
2023/07/07 10:38:47;;;;;;;5.45;2.35;;;34.10;88.10;;;;;;1891129;75;21661;-69
2023/07/07 10:41:23;;;;;;;6.85;2.90;;;34.00;87.50;;;;;;1936456;73;21592;-69
2023/07/07 10:44:02;;;;;;;7.65;3.05;;;34.00;87.80;;;;;;1928340;74;21116;-70
2023/07/07 10:46:37;;;;;;;8.75;2.37;;;33.90;88.10;;;;;;1931981;74;21126;-68
2023/07/07 10:49:13;;;;;;;6.50;3.02;;;34.00;88.10;;;;;;1935358;73;21123;-69
2023/07/07 10:52:05;;;;;;;4.92;2.55;;;33.90;88.10;;;;;;1931532;74;21095;-68
2023/07/07 10:54:49;;;;;;;7.28;2.67;;;33.90;88.50;;;;;;1885231;74;21538;-68
2023/07/07 10:57:37;;;;;;;5.70;2.37;;;33.90;89.10;;;;;;1926909;74;21118;-68
2023/07/07 11:00:35;;;;;;;6.62;2.87;;;33.80;89.20;;;;;;1919627;73;21121;-73
2023/07/07 11:03:42;;;;;;;6.00;3.20;;;33.80;89.50;;;;;;1932388;73;21123;-69
2023/07/07 11:06:38;;;;;;;7.95;3.50;;;33.80;89.90;;;;;;1929371;73;21147;-70
2023/07/07 11:09:29;;;;;;;8.13;3.95;;;33.80;90.20;;;;;;1931205;74;21091;-69
2023/07/07 11:12:22;;;;;;;8.88;3.85;;;33.70;90.40;;;;;;1928133;74;21100;-72
2023/07/07 11:15:22;;;;;;;6.50;4.30;;;33.80;90.60;;;;;;1898467;75;21122;-69
2023/07/07 11:18:15;;;;;;;8.95;4.10;;;33.70;90.70;;;;;;1865454;77;21200;-69
2023/07/07 11:21:00;;;;;;;6.62;4.45;;;33.70;90.70;;;;;;1876478;75;21155;-69
2023/07/07 11:23:47;;;;;;;10.43;4.08;;;33.60;90.80;;;;;;1888987;74;21591;-70
2023/07/07 11:26:46;;;;;;;6.75;3.45;;;33.60;91.40;;;;;;1874889;75;21516;-68
2023/07/07 11:29:34;;;;;;;9.08;3.77;;;33.60;92.00;;;;;;1930667;74;21245;-69
2023/07/07 11:32:28;;;;;;;7.07;4.23;;;33.50;92.30;;;;;;1931133;74;21607;-70
2023/07/07 11:35:18;;;;;;;6.22;3.83;;;33.50;92.30;;;;;;1947210;73;21155;-71
2023/07/07 11:38:11;;;;;;;7.60;4.42;;;33.50;92.50;;;;;;1932212;74;21125;-69
2023/07/07 11:41:13;;;;;;;8.20;3.95;;;33.40;92.70;;;;;;1940983;73;21123;-69
2023/07/07 11:44:07;;;;;;;6.83;4.67;;;33.40;92.70;;;;;;1931226;73;21518;-71
2023/07/07 11:46:52;;;;;;;10.75;4.70;;;33.30;92.70;;;;;;1925265;74;21525;-68
2023/07/07 11:49:36;;;;;;;9.08;4.47;;;33.40;93.20;;;;;;1932401;74;21147;-69
2023/07/07 11:52:34;;;;;;;6.53;4.03;;;33.30;93.30;;;;;;1893748;75;21289;-68
2023/07/07 11:55:48;;;;;;;7.80;4.62;;;33.20;93.30;;;;;;1895930;74;21695;-67
2023/07/07 11:58:26;;;;;;;;;;;33.20;93.80;;;;;;1905529;74;21190;-69
2023/07/07 12:01:22;;;;;;;10.40;4.55;;;33.20;93.30;;;;;;1874523;74;20212;-69
2023/07/07 12:04:05;;;;;;;9.00;4.22;;;33.10;93.80;;;;;;1895700;75;21079;-72
2023/07/07 12:06:52;;;;;;;8.98;5.25;;;33.20;93.90;;;;;;1905156;74;21110;-68
2023/07/07 12:09:47;;;;;;;10.10;5.30;;;33.10;94.00;;;;;;1884450;75;21088;-70
2023/07/07 12:12:26;;;;;;;11.05;5.40;;;33.10;94.10;;;;;;1943595;73;21120;-68
2023/07/07 12:15:17;;;;;;;7.53;4.50;;;33.10;94.20;;;;;;1925511;73;21117;-70
2023/07/07 12:17:57;;;;;;;8.40;5.22;;;33.00;94.00;;;;;;1927720;73;21176;-69
2023/07/07 12:20:37;;;;;;;16.12;6.22;;;33.00;94.10;;;;;;1931424;73;21122;-69
2023/07/07 12:23:22;;;;;;;10.60;6.12;;;33.00;94.10;;;;;;1898946;74;21136;-68
2023/07/07 12:26:19;;;;;;;10.93;5.65;;;33.00;94.20;;;;;;1921270;74;21111;-70
2023/07/07 12:28:56;;;;;;;11.53;6.10;;;33.00;94.40;;;;;;1877910;76;21271;-68
2023/07/07 12:31:30;;;;;;;13.78;6.55;;;33.00;94.50;;;;;;1929854;74;21203;-67
2023/07/07 12:34:37;;;;;;;8.63;5.55;;;32.90;94.50;;;;;;1933963;73;21071;-67
2023/07/07 12:37:21;;;;;;;9.18;5.85;;;32.90;94.40;;;;;;1927408;73;21534;-68
2023/07/07 12:40:05;;;;;;;11.65;5.47;;;32.90;94.30;;;;;;1934545;73;21154;-68
2023/07/07 12:42:56;;;;;;;10.28;5.08;;;32.80;94.40;;;;;;1932044;74;21437;-68
2023/07/07 12:45:48;;;;;;;9.93;5.60;;;32.80;94.30;;;;;;1921191;73;21279;-69
2023/07/07 12:48:28;;;;;;;10.28;5.60;;;32.80;94.40;;;;;;1916777;74;21090;-68
2023/07/07 12:51:07;;;;;;;8.53;5.55;;;32.80;94.80;;;;;;1886686;75;21189;-67
2023/07/07 12:53:44;;;;;;;12.88;5.08;;;32.80;94.50;;;;;;1954470;73;21114;-68
2023/07/07 12:56:27;;;;;;;9.10;5.05;;;32.70;94.40;;;;;;1952583;73;21160;-69
2023/07/07 12:59:02;;;;;;;10.00;5.30;;;32.70;94.50;;;;;;1969429;72;21134;-69
2023/07/07 13:01:42;;;;;;;8.20;4.67;;;32.70;95.00;;;;;;1971500;72;21153;-67
2023/07/07 13:04:19;;;;;;;10.20;5.47;;;32.70;94.60;;;;;;1970849;72;21192;-69
2023/07/07 13:07:03;;;;;;;12.98;5.70;;;32.70;94.60;;;;;;1969173;71;21285;-68
2023/07/07 13:09:51;;;;;;;15.15;5.53;;;32.70;94.80;;;;;;1929692;73;21119;-82
2023/07/07 13:12:44;;;;;;;11.45;5.47;;;32.60;94.60;;;;;;1930415;73;21093;-80
2023/07/07 13:15:31;;;;;;;11.50;5.25;;;32.60;94.70;;;;;;1932022;74;21109;-81
2023/07/07 13:18:24;;;;;;;12.47;6.33;;;32.70;94.70;;;;;;1895344;74;21200;-81
2023/07/07 13:21:16;;;;;;;10.80;6.90;;;32.60;94.70;;;;;;1924926;74;21040;-83
2023/07/07 13:23:53;;;;;;;10.95;6.75;;;32.60;94.90;;;;;;1932790;74;21634;-81
2023/07/07 13:26:33;;;;;;;11.75;7.67;;;32.60;94.70;;;;;;1932501;74;21120;-80
2023/07/07 13:29:10;;;;;;;16.10;7.53;;;32.50;94.70;;;;;;1950250;73;21061;-81
2023/07/07 13:32:00;;;;;;;14.45;6.95;;;32.50;94.80;;;;;;1905626;74;21469;-83
2023/07/07 13:34:34;;;;;;;10.85;7.25;;;32.50;94.90;;;;;;1887232;74;21074;-80
2023/07/07 13:37:08;;;;;;;11.03;6.65;;;32.50;94.90;;;;;;1913883;75;21223;-81
2023/07/07 13:39:46;;;;;;;11.95;7.58;;;32.50;94.80;;;;;;1933985;73;21087;-82
2023/07/07 13:42:33;;;;;;;11.53;7.58;;;32.60;94.70;;;;;;1933370;74;21574;-81
2023/07/07 13:45:20;;;;;;;13.78;7.35;;;32.50;94.70;;;;;;1916901;74;21074;-77
2023/07/07 13:48:19;;;;;;;10.50;6.95;;;32.50;94.80;;;;;;1931142;73;21189;-81
2023/07/07 13:51:06;;;;;;;10.30;6.92;;;32.50;95.00;;;;;;1939809;73;21274;-81
2023/07/07 13:53:57;;;;;;;8.88;6.55;;;32.50;94.90;;;;;;1934525;73;21107;-80
2023/07/07 13:56:29;;;;;;;10.65;6.35;;;32.50;95.00;;;;;;1939118;73;21602;-82
2023/07/07 13:59:03;;;;;;;12.25;6.15;;;32.50;95.00;;;;;;1935095;73;21588;-80
2023/07/07 14:01:54;;;;;;;10.63;6.12;;;32.50;95.10;;;;;;1929337;73;21091;-80
2023/07/07 14:04:33;;;;;;;7.45;5.12;;;32.40;95.20;;;;;;1904373;74;21142;-80
2023/07/07 14:07:06;;;;;;;9.38;5.72;;;32.40;95.30;;;;;;1910308;74;21166;-82
2023/07/07 14:09:50;;;;;;;9.55;6.22;;;32.40;95.30;;;;;;1900756;73;21084;-80
2023/07/07 14:12:26;;;;;;;8.05;5.58;;;32.40;95.40;;;;;;1943204;73;21183;-77
2023/07/07 14:15:15;;;;;;;8.85;5.90;;;32.40;95.40;;;;;;1923843;73;21144;-79